createdAt,value
2023-01-03T00:01:12.019Z,9.8
2023-01-03T00:11:12.042Z,9.7
2023-01-03T00:21:12.015Z,9.7
2023-01-03T00:31:12.107Z,9.6
2023-01-03T00:41:11.977Z,9.7
2023-01-03T00:51:11.991Z,9.7
2023-01-03T01:01:12.076Z,9.7
2023-01-03T01:11:11.935Z,9.8
2023-01-03T01:21:11.914Z,9.8
2023-01-03T01:31:11.973Z,9.9
2023-01-03T01:41:11.897Z,9.8
2023-01-03T01:51:11.930Z,9.7
2023-01-03T02:01:11.966Z,9.7
2023-01-03T02:11:11.858Z,9.8
2023-01-03T02:21:15.680Z,9.8
2023-01-03T02:31:11.890Z,9.9
2023-01-03T02:41:11.822Z,9.9
2023-01-03T02:51:11.799Z,9.9
2023-01-03T03:01:11.775Z,9.9
2023-01-03T03:11:11.803Z,9.9
2023-01-03T03:21:11.757Z,9.9
2023-01-03T03:31:11.773Z,9.9
2023-01-03T03:41:11.720Z,10
2023-01-03T03:51:11.722Z,10
2023-01-03T04:01:11.685Z,10
2023-01-03T04:11:11.653Z,10
2023-01-03T04:21:17.023Z,9.8
2023-01-03T04:31:11.642Z,9.7
2023-01-03T04:41:11.627Z,9.6
2023-01-03T04:51:11.618Z,9.5
2023-01-03T05:01:11.745Z,9.5
2023-01-03T05:11:11.590Z,9.5
2023-01-03T05:21:11.559Z,9.5
2023-01-03T05:31:11.525Z,9.5
2023-01-03T05:41:11.533Z,9.4
2023-01-03T05:51:11.524Z,9.4
2023-01-03T06:01:11.545Z,9.4
2023-01-03T06:11:11.500Z,9.4
2023-01-03T06:21:11.511Z,9.3
2023-01-03T06:31:11.474Z,9.3
2023-01-03T06:41:11.451Z,9.4
2023-01-03T06:51:11.429Z,9.3
2023-01-03T07:01:11.471Z,9.3
2023-01-03T07:11:11.408Z,9.3
2023-01-03T07:21:11.391Z,9.5
2023-01-03T07:31:11.375Z,9.5
2023-01-03T07:41:11.348Z,9.6
2023-01-03T07:51:11.354Z,9.6
2023-01-03T08:01:11.576Z,9.7
2023-01-03T08:11:11.303Z,9.7
2023-01-03T08:21:11.302Z,9.8
2023-01-03T08:31:11.312Z,9.8
2023-01-03T08:41:11.264Z,9.8
2023-01-03T08:51:11.253Z,9.9
2023-01-03T09:01:11.249Z,9.9
2023-01-03T09:11:11.232Z,10
2023-01-03T09:21:11.232Z,10
2023-01-03T09:31:11.233Z,10
2023-01-03T09:41:11.174Z,10.1
2023-01-03T09:51:22.375Z,10.4
2023-01-03T10:01:11.225Z,10.5
2023-01-03T10:11:11.160Z,10.5
2023-01-03T10:21:11.108Z,10.8
2023-01-03T10:31:11.052Z,11
2023-01-03T10:41:11.093Z,11.1
2023-01-03T10:51:11.059Z,11.4
2023-01-03T11:01:11.187Z,11.5
2023-01-03T11:11:11.028Z,11.7
2023-01-03T11:21:11.035Z,11.7
2023-01-03T11:31:10.984Z,11.9
2023-01-03T11:41:10.977Z,11.9
2023-01-03T11:51:11.007Z,12.1
2023-01-03T12:01:10.960Z,12.3
2023-01-03T12:11:10.944Z,12.5
2023-01-03T12:21:10.943Z,12.6
2023-01-03T12:31:10.926Z,12.7
2023-01-03T12:41:10.904Z,12.8
2023-01-03T12:51:10.859Z,13
2023-01-03T13:01:10.955Z,13.2
2023-01-03T13:11:10.841Z,13.2
2023-01-03T13:21:10.813Z,12.9
2023-01-03T13:31:10.804Z,12.7
2023-01-03T13:41:19.027Z,12.5
2023-01-03T13:51:10.777Z,12.3
2023-01-03T14:01:10.744Z,12.1
2023-01-03T14:11:10.729Z,11.9
2023-01-03T14:21:16.508Z,11.8
2023-01-03T14:31:10.757Z,11.8
2023-01-03T14:41:10.743Z,11.9
2023-01-03T14:51:10.677Z,11.9
2023-01-03T15:01:10.721Z,11.9
2023-01-03T15:11:10.628Z,11.9
2023-01-03T15:21:10.637Z,11.8
2023-01-03T15:31:10.581Z,11.7
2023-01-03T15:41:10.586Z,11.6
2023-01-03T15:51:10.559Z,11.4
2023-01-03T16:01:10.629Z,11.3
2023-01-03T16:11:10.531Z,11.2
2023-01-03T16:21:10.529Z,11.1
2023-01-03T16:31:10.478Z,11
2023-01-03T16:41:10.483Z,11
2023-01-03T16:51:10.461Z,11
2023-01-03T17:01:10.510Z,10.9
2023-01-03T17:11:10.443Z,10.8
2023-01-03T17:21:10.483Z,10.6
2023-01-03T17:31:10.470Z,10.5
2023-01-03T17:41:10.405Z,10.5
2023-01-03T17:51:10.393Z,10.4
2023-01-03T18:01:10.517Z,10.4
2023-01-03T18:11:10.369Z,10.3
2023-01-03T18:21:10.355Z,10.3
2023-01-03T18:31:10.315Z,10.3
2023-01-03T18:41:10.318Z,10.2
2023-01-03T18:51:10.309Z,10.2
2023-01-03T19:01:10.437Z,10.2
2023-01-03T19:11:10.278Z,10.2
2023-01-03T19:21:10.230Z,10.2
2023-01-03T19:31:10.291Z,10.1
2023-01-03T19:41:10.232Z,10.2
2023-01-03T19:51:10.205Z,10.3
2023-01-03T20:01:10.283Z,10.3
2023-01-03T20:11:10.190Z,10.3
2023-01-03T20:21:10.148Z,10.3
2023-01-03T20:31:12.919Z,10.2
2023-01-03T20:41:10.116Z,10.2
2023-01-03T20:51:10.116Z,10.2
2023-01-03T21:01:10.171Z,10.3
2023-01-03T21:11:10.079Z,10.1
2023-01-03T21:21:10.072Z,10.1
2023-01-03T21:31:10.122Z,10.2
2023-01-03T21:41:10.041Z,10.1
2023-01-03T21:51:10.033Z,10.1
2023-01-03T22:01:10.027Z,10.1
2023-01-03T22:11:10.007Z,10.1
2023-01-03T22:21:09.977Z,10.2
2023-01-03T22:31:09.931Z,10.1
2023-01-03T22:41:09.938Z,10
2023-01-03T22:51:09.936Z,10
2023-01-03T23:01:10.003Z,10
2023-01-03T23:11:09.912Z,9.9
2023-01-03T23:21:09.871Z,9.9
2023-01-03T23:31:09.859Z,9.8
2023-01-03T23:41:09.865Z,9.8
2023-01-03T23:51:09.834Z,9.8
